sensor_id;sensor_type;location;lat;lon;timestamp;temperature;humidity
62476;DHT22;50739;45.670;11.936;2023-09-12T00:02:30;22.27;74.72
62476;DHT22;50739;45.670;11.936;2023-09-12T00:07:33;22.13;75.56
62476;DHT22;50739;45.670;11.936;2023-09-12T00:12:35;22.16;74.79
62476;DHT22;50739;45.670;11.936;2023-09-12T00:17:39;22.10;74.88
62476;DHT22;50739;45.670;11.936;2023-09-12T00:22:41;22.13;74.31
62476;DHT22;50739;45.670;11.936;2023-09-12T00:27:43;21.95;74.70
62476;DHT22;50739;45.670;11.936;2023-09-12T00:32:47;21.69;74.93
62476;DHT22;50739;45.670;11.936;2023-09-12T00:37:49;21.71;75.26
62476;DHT22;50739;45.670;11.936;2023-09-12T00:42:51;21.66;74.74
62476;DHT22;50739;45.670;11.936;2023-09-12T00:47:56;21.66;74.77
62476;DHT22;50739;45.670;11.936;2023-09-12T00:53:01;21.44;75.37
62476;DHT22;50739;45.670;11.936;2023-09-12T00:58:05;21.26;75.74
62476;DHT22;50739;45.670;11.936;2023-09-12T01:03:09;21.37;75.86
62476;DHT22;50739;45.670;11.936;2023-09-12T01:08:12;21.38;75.59
62476;DHT22;50739;45.670;11.936;2023-09-12T01:13:14;21.54;74.92
62476;DHT22;50739;45.670;11.936;2023-09-12T01:18:18;21.33;75.81
62476;DHT22;50739;45.670;11.936;2023-09-12T01:23:38;21.07;76.44
62476;DHT22;50739;45.670;11.936;2023-09-12T01:28:45;21.16;76.24
62476;DHT22;50739;45.670;11.936;2023-09-12T01:33:47;21.27;76.26
62476;DHT22;50739;45.670;11.936;2023-09-12T01:38:49;21.13;76.49
62476;DHT22;50739;45.670;11.936;2023-09-12T01:43:54;20.95;76.68
62476;DHT22;50739;45.670;11.936;2023-09-12T01:48:58;20.82;76.78
62476;DHT22;50739;45.670;11.936;2023-09-12T01:54:03;21.10;76.16
62476;DHT22;50739;45.670;11.936;2023-09-12T01:59:07;20.98;76.50
62476;DHT22;50739;45.670;11.936;2023-09-12T02:04:09;21.06;76.44
62476;DHT22;50739;45.670;11.936;2023-09-12T02:09:14;21.10;76.28
62476;DHT22;50739;45.670;11.936;2023-09-12T02:14:17;21.19;76.01
62476;DHT22;50739;45.670;11.936;2023-09-12T02:19:20;21.31;75.97
62476;DHT22;50739;45.670;11.936;2023-09-12T02:24:22;21.26;76.16
62476;DHT22;50739;45.670;11.936;2023-09-12T02:29:25;21.26;75.84
62476;DHT22;50739;45.670;11.936;2023-09-12T02:34:28;20.95;77.16
62476;DHT22;50739;45.670;11.936;2023-09-12T02:39:30;20.95;76.89
62476;DHT22;50739;45.670;11.936;2023-09-12T02:44:34;20.95;76.66
62476;DHT22;50739;45.670;11.936;2023-09-12T02:49:36;20.82;77.16
62476;DHT22;50739;45.670;11.936;2023-09-12T02:54:38;21.06;76.47
62476;DHT22;50739;45.670;11.936;2023-09-12T02:59:42;20.99;76.98
62476;DHT22;50739;45.670;11.936;2023-09-12T03:04:44;21.02;76.83
62476;DHT22;50739;45.670;11.936;2023-09-12T03:09:48;20.92;77.38
62476;DHT22;50739;45.670;11.936;2023-09-12T03:14:52;20.89;77.40
62476;DHT22;50739;45.670;11.936;2023-09-12T03:19:54;20.99;76.43
62476;DHT22;50739;45.670;11.936;2023-09-12T03:24:56;20.79;77.81
62476;DHT22;50739;45.670;11.936;2023-09-12T03:30:00;20.68;77.87
62476;DHT22;50739;45.670;11.936;2023-09-12T03:35:03;20.71;77.41
62476;DHT22;50739;45.670;11.936;2023-09-12T03:40:07;20.64;77.83
62476;DHT22;50739;45.670;11.936;2023-09-12T03:45:11;20.41;78.73
62476;DHT22;50739;45.670;11.936;2023-09-12T03:50:14;20.54;78.70
62476;DHT22;50739;45.670;11.936;2023-09-12T03:55:16;20.44;79.02
62476;DHT22;50739;45.670;11.936;2023-09-12T04:00:20;20.42;79.15
62476;DHT22;50739;45.670;11.936;2023-09-12T04:05:22;20.41;79.20
62476;DHT22;50739;45.670;11.936;2023-09-12T04:10:25;20.42;79.40
62476;DHT22;50739;45.670;11.936;2023-09-12T04:15:28;20.54;78.74
62476;DHT22;50739;45.670;11.936;2023-09-12T04:20:31;20.55;78.64
62476;DHT22;50739;45.670;11.936;2023-09-12T04:25:33;20.48;78.65
62476;DHT22;50739;45.670;11.936;2023-09-12T04:30:37;20.48;79.55
62476;DHT22;50739;45.670;11.936;2023-09-12T04:35:40;20.47;79.28
62476;DHT22;50739;45.670;11.936;2023-09-12T04:40:42;20.41;79.68
62476;DHT22;50739;45.670;11.936;2023-09-12T04:45:46;20.44;79.49
62476;DHT22;50739;45.670;11.936;2023-09-12T04:50:49;20.42;79.58
62476;DHT22;50739;45.670;11.936;2023-09-12T04:55:52;20.28;80.04
62476;DHT22;50739;45.670;11.936;2023-09-12T05:00:56;20.25;80.04
62476;DHT22;50739;45.670;11.936;2023-09-12T05:05:58;20.37;79.82
62476;DHT22;50739;45.670;11.936;2023-09-12T05:11:01;20.41;79.61
62476;DHT22;50739;45.670;11.936;2023-09-12T05:16:05;20.34;79.74
62476;DHT22;50739;45.670;11.936;2023-09-12T05:21:07;20.48;79.07
62476;DHT22;50739;45.670;11.936;2023-09-12T05:26:09;20.48;78.57
62476;DHT22;50739;45.670;11.936;2023-09-12T05:31:13;20.52;78.44
62476;DHT22;50739;45.670;11.936;2023-09-12T05:36:16;20.69;78.52
62476;DHT22;50739;45.670;11.936;2023-09-12T05:41:18;20.65;79.05
62476;DHT22;50739;45.670;11.936;2023-09-12T05:46:22;20.75;78.72
62476;DHT22;50739;45.670;11.936;2023-09-12T05:51:24;20.88;79.05
62476;DHT22;50739;45.670;11.936;2023-09-12T05:56:27;21.09;77.81
62476;DHT22;50739;45.670;11.936;2023-09-12T06:01:30;21.17;77.99
62476;DHT22;50739;45.670;11.936;2023-09-12T06:06:33;21.19;78.72
62476;DHT22;50739;45.670;11.936;2023-09-12T06:11:35;21.22;78.41
62476;DHT22;50739;45.670;11.936;2023-09-12T06:16:39;21.27;78.93
62476;DHT22;50739;45.670;11.936;2023-09-12T06:21:41;21.45;78.49
62476;DHT22;50739;45.670;11.936;2023-09-12T06:26:44;21.58;77.83
62476;DHT22;50739;45.670;11.936;2023-09-12T06:31:48;21.75;77.49
62476;DHT22;50739;45.670;11.936;2023-09-12T06:36:50;21.78;77.22
62476;DHT22;50739;45.670;11.936;2023-09-12T06:41:52;21.92;77.27
62476;DHT22;50739;45.670;11.936;2023-09-12T06:46:56;22.06;77.05
62476;DHT22;50739;45.670;11.936;2023-09-12T06:51:59;22.14;76.98
62476;DHT22;50739;45.670;11.936;2023-09-12T06:57:01;22.35;76.96
62476;DHT22;50739;45.670;11.936;2023-09-12T07:02:05;22.50;75.90
62476;DHT22;50739;45.670;11.936;2023-09-12T07:07:08;22.57;76.58
62476;DHT22;50739;45.670;11.936;2023-09-12T07:12:10;22.63;77.37
62476;DHT22;50739;45.670;11.936;2023-09-12T07:17:14;22.72;76.98
62476;DHT22;50739;45.670;11.936;2023-09-12T07:22:16;22.81;76.09
62476;DHT22;50739;45.670;11.936;2023-09-12T07:27:18;22.78;75.91
62476;DHT22;50739;45.670;11.936;2023-09-12T07:32:22;22.92;77.14
62476;DHT22;50739;45.670;11.936;2023-09-12T07:37:25;23.05;75.57
62476;DHT22;50739;45.670;11.936;2023-09-12T07:42:27;23.22;75.18
62476;DHT22;50739;45.670;11.936;2023-09-12T07:47:31;23.38;75.02
62476;DHT22;50739;45.670;11.936;2023-09-12T07:52:34;23.56;74.11
62476;DHT22;50739;45.670;11.936;2023-09-12T07:57:36;23.77;74.44
62476;DHT22;50739;45.670;11.936;2023-09-12T08:02:40;23.84;74.07
62476;DHT22;50739;45.670;11.936;2023-09-12T08:07:42;23.85;73.95
62476;DHT22;50739;45.670;11.936;2023-09-12T08:12:45;23.84;74.50
62476;DHT22;50739;45.670;11.936;2023-09-12T08:17:49;23.85;74.44
62476;DHT22;50739;45.670;11.936;2023-09-12T08:22:53;23.88;73.64
62476;DHT22;50739;45.670;11.936;2023-09-12T08:27:55;24.06;74.52
62476;DHT22;50739;45.670;11.936;2023-09-12T08:32:59;24.18;72.39
62476;DHT22;50739;45.670;11.936;2023-09-12T08:38:04;24.23;71.86
62476;DHT22;50739;45.670;11.936;2023-09-12T08:43:06;24.36;72.61
62476;DHT22;50739;45.670;11.936;2023-09-12T08:48:11;24.59;72.60
62476;DHT22;50739;45.670;11.936;2023-09-12T08:53:13;24.67;72.46
62476;DHT22;50739;45.670;11.936;2023-09-12T08:58:16;24.95;70.23
62476;DHT22;50739;45.670;11.936;2023-09-12T09:03:20;24.84;71.66
62476;DHT22;50739;45.670;11.936;2023-09-12T09:08:23;24.98;70.68
62476;DHT22;50739;45.670;11.936;2023-09-12T09:13:27;25.29;71.10
62476;DHT22;50739;45.670;11.936;2023-09-12T09:18:49;25.45;68.88
62476;DHT22;50739;45.670;11.936;2023-09-12T09:23:52;25.61;70.32
62476;DHT22;50739;45.670;11.936;2023-09-12T09:29:06;25.45;67.75
62476;DHT22;50739;45.670;11.936;2023-09-12T09:34:14;25.52;67.32
62476;DHT22;50739;45.670;11.936;2023-09-12T09:39:17;25.58;68.27
62476;DHT22;50739;45.670;11.936;2023-09-12T09:44:21;25.53;69.75
62476;DHT22;50739;45.670;11.936;2023-09-12T09:49:25;25.55;68.51
62476;DHT22;50739;45.670;11.936;2023-09-12T09:54:27;25.59;67.98
62476;DHT22;50739;45.670;11.936;2023-09-12T09:59:29;25.81;66.40
62476;DHT22;50739;45.670;11.936;2023-09-12T10:04:34;25.96;67.30
62476;DHT22;50739;45.670;11.936;2023-09-12T10:09:43;26.13;66.61
62476;DHT22;50739;45.670;11.936;2023-09-12T10:14:49;26.25;66.74
62476;DHT22;50739;45.670;11.936;2023-09-12T10:19:55;26.28;66.43
62476;DHT22;50739;45.670;11.936;2023-09-12T10:24:58;26.38;65.35
62476;DHT22;50739;45.670;11.936;2023-09-12T10:30:02;26.24;65.91
62476;DHT22;50739;45.670;11.936;2023-09-12T10:35:08;26.53;66.55
62476;DHT22;50739;45.670;11.936;2023-09-12T10:40:11;26.80;64.98
62476;DHT22;50739;45.670;11.936;2023-09-12T10:45:14;26.90;61.82
62476;DHT22;50739;45.670;11.936;2023-09-12T10:50:19;27.08;59.76
62476;DHT22;50739;45.670;11.936;2023-09-12T10:55:22;27.00;59.92
62476;DHT22;50739;45.670;11.936;2023-09-12T11:00:24;27.11;61.09
62476;DHT22;50739;45.670;11.936;2023-09-12T11:05:50;27.33;60.98
62476;DHT22;50739;45.670;11.936;2023-09-12T11:11:18;27.47;59.94
62476;DHT22;50739;45.670;11.936;2023-09-12T11:16:21;27.28;60.08
62476;DHT22;50739;45.670;11.936;2023-09-12T11:21:32;27.52;59.09
62476;DHT22;50739;45.670;11.936;2023-09-12T11:26:35;27.73;58.57
62476;DHT22;50739;45.670;11.936;2023-09-12T11:31:39;28.06;58.37
62476;DHT22;50739;45.670;11.936;2023-09-12T11:36:47;27.95;59.05
62476;DHT22;50739;45.670;11.936;2023-09-12T11:41:50;28.03;58.91
62476;DHT22;50739;45.670;11.936;2023-09-12T11:46:53;28.12;59.67
62476;DHT22;50739;45.670;11.936;2023-09-12T11:51:57;28.34;58.82
62476;DHT22;50739;45.670;11.936;2023-09-12T11:57:19;28.06;58.86
62476;DHT22;50739;45.670;11.936;2023-09-12T12:02:22;28.55;57.95
62476;DHT22;50739;45.670;11.936;2023-09-12T12:07:26;28.71;57.76
62476;DHT22;50739;45.670;11.936;2023-09-12T12:12:29;28.82;57.05
62476;DHT22;50739;45.670;11.936;2023-09-12T12:17:31;28.75;57.22
62476;DHT22;50739;45.670;11.936;2023-09-12T12:22:35;28.80;57.32
62476;DHT22;50739;45.670;11.936;2023-09-12T12:27:38;29.09;56.72
62476;DHT22;50739;45.670;11.936;2023-09-12T12:32:46;29.34;55.41
62476;DHT22;50739;45.670;11.936;2023-09-12T12:38:11;29.60;55.60
62476;DHT22;50739;45.670;11.936;2023-09-12T12:43:17;29.81;54.28
62476;DHT22;50739;45.670;11.936;2023-09-12T12:48:29;29.92;54.63
62476;DHT22;50739;45.670;11.936;2023-09-12T12:53:40;30.06;55.10
62476;DHT22;50739;45.670;11.936;2023-09-12T12:58:47;30.25;54.89
62476;DHT22;50739;45.670;11.936;2023-09-12T13:03:50;30.32;54.36
62476;DHT22;50739;45.670;11.936;2023-09-12T13:08:55;30.26;53.66
62476;DHT22;50739;45.670;11.936;2023-09-12T13:13:58;30.13;55.13
62476;DHT22;50739;45.670;11.936;2023-09-12T13:19:00;30.33;54.49
62476;DHT22;50739;45.670;11.936;2023-09-12T13:24:05;30.47;54.61
62476;DHT22;50739;45.670;11.936;2023-09-12T13:29:07;30.98;52.96
62476;DHT22;50739;45.670;11.936;2023-09-12T13:34:09;31.14;52.31
62476;DHT22;50739;45.670;11.936;2023-09-12T13:39:13;31.51;51.90
62476;DHT22;50739;45.670;11.936;2023-09-12T13:44:16;32.29;51.77
62476;DHT22;50739;45.670;11.936;2023-09-12T13:49:18;32.55;50.10
62476;DHT22;50739;45.670;11.936;2023-09-12T13:54:22;32.93;49.38
62476;DHT22;50739;45.670;11.936;2023-09-12T13:59:24;32.43;49.39
62476;DHT22;50739;45.670;11.936;2023-09-12T14:04:27;32.72;50.66
62476;DHT22;50739;45.670;11.936;2023-09-12T14:09:31;32.77;49.02
62476;DHT22;50739;45.670;11.936;2023-09-12T14:14:47;32.96;48.87
62476;DHT22;50739;45.670;11.936;2023-09-12T14:19:50;32.77;49.52
62476;DHT22;50739;45.670;11.936;2023-09-12T14:24:53;33.32;49.09
62476;DHT22;50739;45.670;11.936;2023-09-12T14:29:56;33.25;48.95
62476;DHT22;50739;45.670;11.936;2023-09-12T14:35:00;33.69;48.70
62476;DHT22;50739;45.670;11.936;2023-09-12T14:40:05;34.05;46.92
62476;DHT22;50739;45.670;11.936;2023-09-12T14:45:09;33.52;48.71
62476;DHT22;50739;45.670;11.936;2023-09-12T14:50:11;33.38;49.35
62476;DHT22;50739;45.670;11.936;2023-09-12T14:55:15;33.34;49.82
62476;DHT22;50739;45.670;11.936;2023-09-12T15:00:18;33.34;49.54
62476;DHT22;50739;45.670;11.936;2023-09-12T15:05:20;33.70;48.88
62476;DHT22;50739;45.670;11.936;2023-09-12T15:10:24;33.35;53.72
62476;DHT22;50739;45.670;11.936;2023-09-12T15:27:05;33.04;53.96
62476;DHT22;50739;45.670;11.936;2023-09-12T15:32:07;32.59;54.98
62476;DHT22;50739;45.670;11.936;2023-09-12T15:37:11;32.55;55.09
62476;DHT22;50739;45.670;11.936;2023-09-12T15:42:15;32.35;55.21
62476;DHT22;50739;45.670;11.936;2023-09-12T15:47:17;32.31;57.04
62476;DHT22;50739;45.670;11.936;2023-09-12T15:52:19;31.90;58.97
62476;DHT22;50739;45.670;11.936;2023-09-12T15:57:23;32.36;58.03
62476;DHT22;50739;45.670;11.936;2023-09-12T16:02:25;32.29;57.58
62476;DHT22;50739;45.670;11.936;2023-09-12T16:07:28;32.04;57.92
62476;DHT22;50739;45.670;11.936;2023-09-12T16:12:31;31.59;58.87
62476;DHT22;50739;45.670;11.936;2023-09-12T16:17:34;31.32;59.80
62476;DHT22;50739;45.670;11.936;2023-09-12T16:22:38;30.84;61.14
62476;DHT22;50739;45.670;11.936;2023-09-12T16:27:41;30.19;62.55
62476;DHT22;50739;45.670;11.936;2023-09-12T16:32:44;29.80;63.71
62476;DHT22;50739;45.670;11.936;2023-09-12T16:37:46;29.35;64.94
62476;DHT22;50739;45.670;11.936;2023-09-12T16:42:50;29.00;66.12
62476;DHT22;50739;45.670;11.936;2023-09-12T16:47:52;28.80;67.03
62476;DHT22;50739;45.670;11.936;2023-09-12T16:52:55;28.67;67.81
62476;DHT22;50739;45.670;11.936;2023-09-12T16:57:59;28.43;68.40
62476;DHT22;50739;45.670;11.936;2023-09-12T17:03:01;28.33;68.05
62476;DHT22;50739;45.670;11.936;2023-09-12T17:08:04;28.09;68.90
62476;DHT22;50739;45.670;11.936;2023-09-12T17:13:08;27.97;68.46
62476;DHT22;50739;45.670;11.936;2023-09-12T17:18:10;27.63;68.71
62476;DHT22;50739;45.670;11.936;2023-09-12T17:23:12;27.52;69.14
62476;DHT22;50739;45.670;11.936;2023-09-12T17:28:16;27.38;68.26
62476;DHT22;50739;45.670;11.936;2023-09-12T17:33:18;27.18;67.75
62476;DHT22;50739;45.670;11.936;2023-09-12T17:38:21;27.15;67.68
62476;DHT22;50739;45.670;11.936;2023-09-12T17:43:25;27.04;67.29
62476;DHT22;50739;45.670;11.936;2023-09-12T17:48:27;26.86;67.75
62476;DHT22;50739;45.670;11.936;2023-09-12T17:53:33;26.62;68.32
62476;DHT22;50739;45.670;11.936;2023-09-12T17:58:38;26.60;68.59
62476;DHT22;50739;45.670;11.936;2023-09-12T18:03:40;26.44;69.82
62476;DHT22;50739;45.670;11.936;2023-09-12T18:08:42;26.45;69.52
62476;DHT22;50739;45.670;11.936;2023-09-12T18:13:46;26.27;69.93
62476;DHT22;50739;45.670;11.936;2023-09-12T18:18:48;26.24;70.34
62476;DHT22;50739;45.670;11.936;2023-09-12T18:23:52;25.96;71.08
62476;DHT22;50739;45.670;11.936;2023-09-12T18:28:57;25.87;71.61
62476;DHT22;50739;45.670;11.936;2023-09-12T18:34:00;25.86;71.68
62476;DHT22;50739;45.670;11.936;2023-09-12T18:39:02;25.84;71.91
62476;DHT22;50739;45.670;11.936;2023-09-12T18:44:09;25.73;72.33
62476;DHT22;50739;45.670;11.936;2023-09-12T18:49:11;25.77;70.97
62476;DHT22;50739;45.670;11.936;2023-09-12T18:54:20;25.94;71.47
62476;DHT22;50739;45.670;11.936;2023-09-12T18:59:24;25.80;71.40
62476;DHT22;50739;45.670;11.936;2023-09-12T19:04:28;25.52;72.26
62476;DHT22;50739;45.670;11.936;2023-09-12T19:09:31;25.41;72.32
62476;DHT22;50739;45.670;11.936;2023-09-12T19:14:34;25.29;72.39
62476;DHT22;50739;45.670;11.936;2023-09-12T19:19:39;25.25;71.99
62476;DHT22;50739;45.670;11.936;2023-09-12T19:24:41;25.17;72.46
62476;DHT22;50739;45.670;11.936;2023-09-12T19:29:49;25.17;72.50
62476;DHT22;50739;45.670;11.936;2023-09-12T19:34:51;25.22;72.20
62476;DHT22;50739;45.670;11.936;2023-09-12T19:39:56;25.19;72.05
62476;DHT22;50739;45.670;11.936;2023-09-12T19:45:00;25.24;72.27
62476;DHT22;50739;45.670;11.936;2023-09-12T19:50:03;25.28;71.51
62476;DHT22;50739;45.670;11.936;2023-09-12T19:55:05;25.17;71.82
62476;DHT22;50739;45.670;11.936;2023-09-12T20:00:10;25.18;72.05
62476;DHT22;50739;45.670;11.936;2023-09-12T20:05:13;25.26;72.27
62476;DHT22;50739;45.670;11.936;2023-09-12T20:10:16;25.12;72.82
62476;DHT22;50739;45.670;11.936;2023-09-12T20:15:22;24.99;73.17
62476;DHT22;50739;45.670;11.936;2023-09-12T20:20:24;25.10;73.38
62476;DHT22;50739;45.670;11.936;2023-09-12T20:25:27;25.08;73.20
62476;DHT22;50739;45.670;11.936;2023-09-12T20:30:30;24.76;74.09
62476;DHT22;50739;45.670;11.936;2023-09-12T20:35:34;24.67;74.45
62476;DHT22;50739;45.670;11.936;2023-09-12T20:40:41;24.73;74.32
62476;DHT22;50739;45.670;11.936;2023-09-12T20:45:46;24.63;74.21
62476;DHT22;50739;45.670;11.936;2023-09-12T20:50:54;24.35;75.16
62476;DHT22;50739;45.670;11.936;2023-09-12T20:55:57;24.40;74.91
62476;DHT22;50739;45.670;11.936;2023-09-12T21:01:00;24.29;75.19
62476;DHT22;50739;45.670;11.936;2023-09-12T21:06:03;24.26;75.31
62476;DHT22;50739;45.670;11.936;2023-09-12T21:11:05;24.53;74.92
62476;DHT22;50739;45.670;11.936;2023-09-12T21:16:09;24.60;75.01
62476;DHT22;50739;45.670;11.936;2023-09-12T21:21:14;24.42;75.72
62476;DHT22;50739;45.670;11.936;2023-09-12T21:26:20;24.44;75.39
62476;DHT22;50739;45.670;11.936;2023-09-12T21:31:29;24.52;74.90
62476;DHT22;50739;45.670;11.936;2023-09-12T21:36:33;24.52;74.85
62476;DHT22;50739;45.670;11.936;2023-09-12T21:41:36;24.48;75.51
62476;DHT22;50739;45.670;11.936;2023-09-12T21:46:39;24.28;75.33
62476;DHT22;50739;45.670;11.936;2023-09-12T21:51:42;23.94;76.90
62476;DHT22;50739;45.670;11.936;2023-09-12T21:56:44;23.95;77.13
62476;DHT22;50739;45.670;11.936;2023-09-12T22:01:48;24.14;75.96
62476;DHT22;50739;45.670;11.936;2023-09-12T22:06:50;24.19;76.23
62476;DHT22;50739;45.670;11.936;2023-09-12T22:11:53;24.14;76.41
62476;DHT22;50739;45.670;11.936;2023-09-12T22:16:56;23.87;77.51
62476;DHT22;50739;45.670;11.936;2023-09-12T22:21:59;24.02;77.03
62476;DHT22;50739;45.670;11.936;2023-09-12T22:27:01;23.97;76.85
62476;DHT22;50739;45.670;11.936;2023-09-12T22:32:05;23.81;77.56
62476;DHT22;50739;45.670;11.936;2023-09-12T22:37:08;23.84;77.36
62476;DHT22;50739;45.670;11.936;2023-09-12T22:42:10;23.79;77.59
62476;DHT22;50739;45.670;11.936;2023-09-12T22:47:14;23.78;77.63
62476;DHT22;50739;45.670;11.936;2023-09-12T22:52:16;23.75;77.90
62476;DHT22;50739;45.670;11.936;2023-09-12T22:57:19;23.75;78.00
62476;DHT22;50739;45.670;11.936;2023-09-12T23:02:22;23.79;78.33
62476;DHT22;50739;45.670;11.936;2023-09-12T23:07:24;23.77;78.53
62476;DHT22;50739;45.670;11.936;2023-09-12T23:12:27;23.63;79.04
62476;DHT22;50739;45.670;11.936;2023-09-12T23:17:31;23.73;78.96
62476;DHT22;50739;45.670;11.936;2023-09-12T23:22:33;23.67;79.26
62476;DHT22;50739;45.670;11.936;2023-09-12T23:27:36;23.74;78.95
62476;DHT22;50739;45.670;11.936;2023-09-12T23:32:39;23.71;79.72
62476;DHT22;50739;45.670;11.936;2023-09-12T23:37:41;23.78;78.48
62476;DHT22;50739;45.670;11.936;2023-09-12T23:42:44;23.53;80.04
62476;DHT22;50739;45.670;11.936;2023-09-12T23:47:47;23.39;80.02
62476;DHT22;50739;45.670;11.936;2023-09-12T23:52:50;23.56;79.93
62476;DHT22;50739;45.670;11.936;2023-09-12T23:57:52;23.50;79.97
